sensor_id;sensor_type;location;lat;lon;timestamp;P1;durP1;ratioP1;P2;durP2;ratioP2
4529;SDS011;2277;51.626;7.516;2023-05-10T00:00:38;1.90;;;1.37;;
4529;SDS011;2277;51.626;7.516;2023-05-10T00:03:04;1.97;;;1.80;;
4529;SDS011;2277;51.626;7.516;2023-05-10T00:05:30;1.70;;;1.40;;
4529;SDS011;2277;51.626;7.516;2023-05-10T00:07:56;1.80;;;1.37;;
4529;SDS011;2277;51.626;7.516;2023-05-10T00:10:21;1.87;;;1.70;;
4529;SDS011;2277;51.626;7.516;2023-05-10T00:12:47;2.50;;;1.80;;
4529;SDS011;2277;51.626;7.516;2023-05-10T00:15:13;1.97;;;1.77;;
4529;SDS011;2277;51.626;7.516;2023-05-10T00:17:38;3.73;;;2.57;;
4529;SDS011;2277;51.626;7.516;2023-05-10T00:20:04;3.53;;;1.60;;
4529;SDS011;2277;51.626;7.516;2023-05-10T00:22:31;2.43;;;1.60;;
4529;SDS011;2277;51.626;7.516;2023-05-10T00:24:56;2.63;;;1.60;;
4529;SDS011;2277;51.626;7.516;2023-05-10T00:27:22;3.30;;;2.20;;
4529;SDS011;2277;51.626;7.516;2023-05-10T00:29:48;1.77;;;1.17;;
4529;SDS011;2277;51.626;7.516;2023-05-10T00:32:14;2.40;;;1.83;;
4529;SDS011;2277;51.626;7.516;2023-05-10T00:34:39;1.93;;;1.80;;
4529;SDS011;2277;51.626;7.516;2023-05-10T00:37:05;2.93;;;2.43;;
4529;SDS011;2277;51.626;7.516;2023-05-10T00:39:31;3.90;;;3.50;;
4529;SDS011;2277;51.626;7.516;2023-05-10T00:41:56;5.60;;;2.50;;
4529;SDS011;2277;51.626;7.516;2023-05-10T00:44:22;3.20;;;2.90;;
4529;SDS011;2277;51.626;7.516;2023-05-10T00:46:48;2.67;;;1.70;;
4529;SDS011;2277;51.626;7.516;2023-05-10T00:49:14;1.63;;;1.43;;
4529;SDS011;2277;51.626;7.516;2023-05-10T00:51:40;2.27;;;1.87;;
4529;SDS011;2277;51.626;7.516;2023-05-10T00:54:07;1.43;;;1.27;;
4529;SDS011;2277;51.626;7.516;2023-05-10T00:56:34;2.20;;;1.90;;
4529;SDS011;2277;51.626;7.516;2023-05-10T00:59:01;3.00;;;1.43;;
4529;SDS011;2277;51.626;7.516;2023-05-10T01:01:27;3.50;;;1.43;;
4529;SDS011;2277;51.626;7.516;2023-05-10T01:03:54;2.20;;;1.70;;
4529;SDS011;2277;51.626;7.516;2023-05-10T01:06:20;2.17;;;1.50;;
4529;SDS011;2277;51.626;7.516;2023-05-10T01:08:45;3.20;;;1.50;;
4529;SDS011;2277;51.626;7.516;2023-05-10T01:11:12;2.07;;;1.60;;
4529;SDS011;2277;51.626;7.516;2023-05-10T01:13:38;2.60;;;1.70;;
4529;SDS011;2277;51.626;7.516;2023-05-10T01:16:07;3.87;;;1.80;;
4529;SDS011;2277;51.626;7.516;2023-05-10T01:18:33;6.10;;;2.73;;
4529;SDS011;2277;51.626;7.516;2023-05-10T01:21:25;2.10;;;1.30;;
4529;SDS011;2277;51.626;7.516;2023-05-10T01:35:00;3.60;;;1.87;;
4529;SDS011;2277;51.626;7.516;2023-05-10T01:37:49;4.33;;;2.00;;
4529;SDS011;2277;51.626;7.516;2023-05-10T01:40:23;1.97;;;1.73;;
4529;SDS011;2277;51.626;7.516;2023-05-10T01:42:57;3.13;;;2.00;;
4529;SDS011;2277;51.626;7.516;2023-05-10T01:47:58;3.10;;;2.63;;
4529;SDS011;2277;51.626;7.516;2023-05-10T01:50:31;3.43;;;2.47;;
4529;SDS011;2277;51.626;7.516;2023-05-10T01:52:59;3.77;;;1.90;;
4529;SDS011;2277;51.626;7.516;2023-05-10T01:55:28;4.90;;;3.03;;
4529;SDS011;2277;51.626;7.516;2023-05-10T01:58:02;3.23;;;1.83;;
4529;SDS011;2277;51.626;7.516;2023-05-10T02:00:39;3.30;;;2.40;;
4529;SDS011;2277;51.626;7.516;2023-05-10T02:03:08;5.10;;;2.43;;
4529;SDS011;2277;51.626;7.516;2023-05-10T02:05:35;3.60;;;2.53;;
4529;SDS011;2277;51.626;7.516;2023-05-10T02:08:03;4.00;;;3.03;;
4529;SDS011;2277;51.626;7.516;2023-05-10T02:10:31;2.73;;;2.20;;
4529;SDS011;2277;51.626;7.516;2023-05-10T02:12:58;2.70;;;1.50;;
4529;SDS011;2277;51.626;7.516;2023-05-10T02:15:25;3.33;;;1.70;;
4529;SDS011;2277;51.626;7.516;2023-05-10T02:17:52;1.80;;;1.30;;
4529;SDS011;2277;51.626;7.516;2023-05-10T02:20:20;1.47;;;1.37;;
4529;SDS011;2277;51.626;7.516;2023-05-10T02:22:49;1.87;;;1.20;;
4529;SDS011;2277;51.626;7.516;2023-05-10T02:25:18;2.47;;;1.37;;
4529;SDS011;2277;51.626;7.516;2023-05-10T02:27:45;1.93;;;1.30;;
4529;SDS011;2277;51.626;7.516;2023-05-10T02:30:12;1.30;;;1.00;;
4529;SDS011;2277;51.626;7.516;2023-05-10T02:32:38;2.60;;;1.33;;
4529;SDS011;2277;51.626;7.516;2023-05-10T02:35:05;1.30;;;0.70;;
4529;SDS011;2277;51.626;7.516;2023-05-10T02:37:32;1.17;;;0.80;;
4529;SDS011;2277;51.626;7.516;2023-05-10T02:39:59;2.80;;;1.33;;
4529;SDS011;2277;51.626;7.516;2023-05-10T02:42:28;1.63;;;0.87;;
4529;SDS011;2277;51.626;7.516;2023-05-10T02:45:05;1.00;;;0.70;;
4529;SDS011;2277;51.626;7.516;2023-05-10T02:47:35;0.90;;;0.60;;
4529;SDS011;2277;51.626;7.516;2023-05-10T02:50:01;1.20;;;1.10;;
4529;SDS011;2277;51.626;7.516;2023-05-10T02:52:29;1.40;;;0.80;;
4529;SDS011;2277;51.626;7.516;2023-05-10T02:55:01;1.33;;;1.03;;
4529;SDS011;2277;51.626;7.516;2023-05-10T02:57:32;0.90;;;0.70;;
4529;SDS011;2277;51.626;7.516;2023-05-10T02:59:59;1.10;;;0.80;;
4529;SDS011;2277;51.626;7.516;2023-05-10T03:02:26;1.50;;;0.80;;
4529;SDS011;2277;51.626;7.516;2023-05-10T03:04:51;1.07;;;0.70;;
4529;SDS011;2277;51.626;7.516;2023-05-10T03:07:17;2.53;;;0.80;;
4529;SDS011;2277;51.626;7.516;2023-05-10T03:09:46;0.90;;;0.63;;
4529;SDS011;2277;51.626;7.516;2023-05-10T03:12:19;1.30;;;0.70;;
4529;SDS011;2277;51.626;7.516;2023-05-10T03:15:11;2.70;;;1.00;;
4529;SDS011;2277;51.626;7.516;2023-05-10T03:18:12;0.87;;;0.60;;
4529;SDS011;2277;51.626;7.516;2023-05-10T03:20:36;1.10;;;0.80;;
4529;SDS011;2277;51.626;7.516;2023-05-10T03:25:41;1.40;;;1.23;;
4529;SDS011;2277;51.626;7.516;2023-05-10T03:28:08;2.20;;;0.90;;
4529;SDS011;2277;51.626;7.516;2023-05-10T03:30:34;0.90;;;0.60;;
4529;SDS011;2277;51.626;7.516;2023-05-10T03:33:05;1.73;;;0.70;;
4529;SDS011;2277;51.626;7.516;2023-05-10T03:35:31;1.43;;;1.10;;
4529;SDS011;2277;51.626;7.516;2023-05-10T03:37:57;0.93;;;0.70;;
4529;SDS011;2277;51.626;7.516;2023-05-10T03:40:22;1.70;;;1.17;;
4529;SDS011;2277;51.626;7.516;2023-05-10T03:42:48;1.73;;;1.10;;
4529;SDS011;2277;51.626;7.516;2023-05-10T03:45:14;1.30;;;0.80;;
4529;SDS011;2277;51.626;7.516;2023-05-10T03:47:40;1.87;;;1.27;;
4529;SDS011;2277;51.626;7.516;2023-05-10T03:50:06;5.30;;;2.67;;
4529;SDS011;2277;51.626;7.516;2023-05-10T03:52:32;3.63;;;1.50;;
4529;SDS011;2277;51.626;7.516;2023-05-10T03:54:57;7.30;;;2.30;;
4529;SDS011;2277;51.626;7.516;2023-05-10T03:57:23;2.60;;;2.17;;
4529;SDS011;2277;51.626;7.516;2023-05-10T03:59:49;2.87;;;1.70;;
4529;SDS011;2277;51.626;7.516;2023-05-10T04:02:15;2.00;;;1.63;;
4529;SDS011;2277;51.626;7.516;2023-05-10T04:04:41;1.73;;;1.63;;
4529;SDS011;2277;51.626;7.516;2023-05-10T04:07:07;2.07;;;1.87;;
4529;SDS011;2277;51.626;7.516;2023-05-10T04:09:34;2.37;;;1.87;;
4529;SDS011;2277;51.626;7.516;2023-05-10T04:12:00;2.53;;;1.70;;
4529;SDS011;2277;51.626;7.516;2023-05-10T04:14:27;8.43;;;3.70;;
4529;SDS011;2277;51.626;7.516;2023-05-10T04:16:52;6.77;;;2.30;;
4529;SDS011;2277;51.626;7.516;2023-05-10T04:19:18;3.20;;;2.00;;
4529;SDS011;2277;51.626;7.516;2023-05-10T04:21:44;2.27;;;2.07;;
4529;SDS011;2277;51.626;7.516;2023-05-10T04:24:09;5.20;;;4.60;;
4529;SDS011;2277;51.626;7.516;2023-05-10T04:26:35;8.93;;;4.80;;
4529;SDS011;2277;51.626;7.516;2023-05-10T04:29:00;5.50;;;3.33;;
4529;SDS011;2277;51.626;7.516;2023-05-10T04:31:26;4.90;;;3.70;;
4529;SDS011;2277;51.626;7.516;2023-05-10T04:33:52;4.03;;;3.20;;
4529;SDS011;2277;51.626;7.516;2023-05-10T04:36:18;4.00;;;3.03;;
4529;SDS011;2277;51.626;7.516;2023-05-10T04:38:43;5.10;;;3.00;;
4529;SDS011;2277;51.626;7.516;2023-05-10T04:41:10;6.60;;;3.07;;
4529;SDS011;2277;51.626;7.516;2023-05-10T04:43:36;4.00;;;3.00;;
4529;SDS011;2277;51.626;7.516;2023-05-10T04:46:02;3.57;;;2.93;;
4529;SDS011;2277;51.626;7.516;2023-05-10T04:48:29;5.47;;;4.03;;
4529;SDS011;2277;51.626;7.516;2023-05-10T04:50:54;3.93;;;2.73;;
4529;SDS011;2277;51.626;7.516;2023-05-10T04:53:20;3.80;;;2.70;;
4529;SDS011;2277;51.626;7.516;2023-05-10T04:55:46;5.13;;;2.73;;
4529;SDS011;2277;51.626;7.516;2023-05-10T04:58:12;4.37;;;3.50;;
4529;SDS011;2277;51.626;7.516;2023-05-10T05:00:37;4.93;;;3.40;;
4529;SDS011;2277;51.626;7.516;2023-05-10T05:03:03;5.07;;;3.60;;
4529;SDS011;2277;51.626;7.516;2023-05-10T05:05:30;5.90;;;4.87;;
4529;SDS011;2277;51.626;7.516;2023-05-10T05:07:55;8.63;;;4.93;;
4529;SDS011;2277;51.626;7.516;2023-05-10T05:10:21;8.60;;;6.70;;
4529;SDS011;2277;51.626;7.516;2023-05-10T05:12:46;5.97;;;3.60;;
4529;SDS011;2277;51.626;7.516;2023-05-10T05:15:12;5.60;;;5.10;;
4529;SDS011;2277;51.626;7.516;2023-05-10T05:17:38;10.73;;;5.63;;
4529;SDS011;2277;51.626;7.516;2023-05-10T05:20:03;11.67;;;5.90;;
4529;SDS011;2277;51.626;7.516;2023-05-10T05:22:29;8.07;;;5.13;;
4529;SDS011;2277;51.626;7.516;2023-05-10T05:24:55;12.33;;;7.63;;
4529;SDS011;2277;51.626;7.516;2023-05-10T05:27:23;12.73;;;6.30;;
4529;SDS011;2277;51.626;7.516;2023-05-10T05:29:52;8.20;;;6.13;;
4529;SDS011;2277;51.626;7.516;2023-05-10T05:32:18;11.63;;;8.70;;
4529;SDS011;2277;51.626;7.516;2023-05-10T05:34:44;7.20;;;6.50;;
4529;SDS011;2277;51.626;7.516;2023-05-10T05:37:14;11.87;;;8.13;;
4529;SDS011;2277;51.626;7.516;2023-05-10T05:39:40;13.50;;;8.57;;
4529;SDS011;2277;51.626;7.516;2023-05-10T05:42:07;16.00;;;10.63;;
4529;SDS011;2277;51.626;7.516;2023-05-10T05:44:33;13.23;;;9.53;;
4529;SDS011;2277;51.626;7.516;2023-05-10T05:46:59;10.53;;;7.80;;
4529;SDS011;2277;51.626;7.516;2023-05-10T05:49:24;20.60;;;10.80;;
4529;SDS011;2277;51.626;7.516;2023-05-10T05:51:50;13.00;;;9.17;;
4529;SDS011;2277;51.626;7.516;2023-05-10T05:54:15;12.00;;;9.90;;
4529;SDS011;2277;51.626;7.516;2023-05-10T05:56:41;15.07;;;9.93;;
4529;SDS011;2277;51.626;7.516;2023-05-10T05:59:07;15.40;;;11.27;;
4529;SDS011;2277;51.626;7.516;2023-05-10T06:01:33;14.57;;;10.30;;
4529;SDS011;2277;51.626;7.516;2023-05-10T06:03:58;19.80;;;12.20;;
4529;SDS011;2277;51.626;7.516;2023-05-10T06:06:24;22.97;;;15.53;;
4529;SDS011;2277;51.626;7.516;2023-05-10T06:08:49;18.23;;;13.17;;
4529;SDS011;2277;51.626;7.516;2023-05-10T06:11:15;18.90;;;11.87;;
4529;SDS011;2277;51.626;7.516;2023-05-10T06:13:40;17.87;;;10.90;;
4529;SDS011;2277;51.626;7.516;2023-05-10T06:16:07;20.50;;;13.70;;
4529;SDS011;2277;51.626;7.516;2023-05-10T06:18:33;25.57;;;16.60;;
4529;SDS011;2277;51.626;7.516;2023-05-10T06:20:58;18.57;;;11.37;;
4529;SDS011;2277;51.626;7.516;2023-05-10T06:23:24;42.93;;;14.60;;
4529;SDS011;2277;51.626;7.516;2023-05-10T06:25:50;27.13;;;13.63;;
4529;SDS011;2277;51.626;7.516;2023-05-10T06:28:16;24.33;;;11.80;;
4529;SDS011;2277;51.626;7.516;2023-05-10T06:30:42;20.53;;;12.63;;
4529;SDS011;2277;51.626;7.516;2023-05-10T06:33:08;29.97;;;13.20;;
4529;SDS011;2277;51.626;7.516;2023-05-10T06:35:33;22.63;;;11.70;;
4529;SDS011;2277;51.626;7.516;2023-05-10T06:37:59;23.40;;;12.90;;
4529;SDS011;2277;51.626;7.516;2023-05-10T06:40:24;17.97;;;11.80;;
4529;SDS011;2277;51.626;7.516;2023-05-10T06:42:50;16.67;;;10.70;;
4529;SDS011;2277;51.626;7.516;2023-05-10T06:45:16;27.60;;;15.13;;
4529;SDS011;2277;51.626;7.516;2023-05-10T06:47:42;20.20;;;12.30;;
4529;SDS011;2277;51.626;7.516;2023-05-10T06:50:08;25.30;;;13.07;;
4529;SDS011;2277;51.626;7.516;2023-05-10T06:52:34;17.47;;;12.43;;
4529;SDS011;2277;51.626;7.516;2023-05-10T06:55:00;16.87;;;12.83;;
4529;SDS011;2277;51.626;7.516;2023-05-10T06:57:26;31.70;;;15.33;;
4529;SDS011;2277;51.626;7.516;2023-05-10T06:59:51;20.37;;;11.97;;
4529;SDS011;2277;51.626;7.516;2023-05-10T07:02:17;18.53;;;11.03;;
4529;SDS011;2277;51.626;7.516;2023-05-10T07:04:43;37.20;;;13.83;;
4529;SDS011;2277;51.626;7.516;2023-05-10T07:07:08;25.20;;;13.20;;
4529;SDS011;2277;51.626;7.516;2023-05-10T07:09:34;23.23;;;12.97;;
4529;SDS011;2277;51.626;7.516;2023-05-10T07:12:00;28.53;;;14.50;;
4529;SDS011;2277;51.626;7.516;2023-05-10T07:14:26;21.33;;;12.37;;
4529;SDS011;2277;51.626;7.516;2023-05-10T07:16:52;19.00;;;12.17;;
4529;SDS011;2277;51.626;7.516;2023-05-10T07:19:18;16.00;;;11.70;;
4529;SDS011;2277;51.626;7.516;2023-05-10T07:21:44;19.93;;;12.67;;
4529;SDS011;2277;51.626;7.516;2023-05-10T07:24:10;20.27;;;11.37;;
4529;SDS011;2277;51.626;7.516;2023-05-10T07:26:36;32.33;;;15.83;;
4529;SDS011;2277;51.626;7.516;2023-05-10T07:29:02;19.87;;;11.83;;
4529;SDS011;2277;51.626;7.516;2023-05-10T07:31:27;26.60;;;14.70;;
4529;SDS011;2277;51.626;7.516;2023-05-10T07:33:53;20.07;;;12.40;;
4529;SDS011;2277;51.626;7.516;2023-05-10T07:36:19;30.10;;;13.27;;
4529;SDS011;2277;51.626;7.516;2023-05-10T07:38:45;22.13;;;15.30;;
4529;SDS011;2277;51.626;7.516;2023-05-10T07:41:13;17.30;;;10.90;;
4529;SDS011;2277;51.626;7.516;2023-05-10T07:43:39;18.03;;;14.20;;
4529;SDS011;2277;51.626;7.516;2023-05-10T07:46:04;33.40;;;12.10;;
4529;SDS011;2277;51.626;7.516;2023-05-10T07:48:30;29.43;;;13.63;;
4529;SDS011;2277;51.626;7.516;2023-05-10T07:50:56;23.13;;;10.63;;
4529;SDS011;2277;51.626;7.516;2023-05-10T07:53:22;19.33;;;9.67;;
4529;SDS011;2277;51.626;7.516;2023-05-10T07:55:51;14.30;;;10.03;;
4529;SDS011;2277;51.626;7.516;2023-05-10T07:58:19;18.73;;;10.67;;
4529;SDS011;2277;51.626;7.516;2023-05-10T08:00:45;17.27;;;10.30;;
4529;SDS011;2277;51.626;7.516;2023-05-10T08:03:10;23.83;;;11.60;;
4529;SDS011;2277;51.626;7.516;2023-05-10T08:05:36;17.57;;;12.87;;
4529;SDS011;2277;51.626;7.516;2023-05-10T08:08:01;20.10;;;10.00;;
4529;SDS011;2277;51.626;7.516;2023-05-10T08:10:27;19.50;;;9.37;;
4529;SDS011;2277;51.626;7.516;2023-05-10T08:12:53;19.40;;;10.60;;
4529;SDS011;2277;51.626;7.516;2023-05-10T08:15:18;18.20;;;8.87;;
4529;SDS011;2277;51.626;7.516;2023-05-10T08:17:44;17.93;;;8.87;;
4529;SDS011;2277;51.626;7.516;2023-05-10T08:20:09;14.53;;;9.17;;
4529;SDS011;2277;51.626;7.516;2023-05-10T08:22:37;15.47;;;9.63;;
4529;SDS011;2277;51.626;7.516;2023-05-10T08:25:03;16.20;;;11.30;;
4529;SDS011;2277;51.626;7.516;2023-05-10T08:27:29;13.97;;;9.37;;
4529;SDS011;2277;51.626;7.516;2023-05-10T08:29:54;24.00;;;11.03;;
4529;SDS011;2277;51.626;7.516;2023-05-10T08:32:20;15.40;;;10.43;;
4529;SDS011;2277;51.626;7.516;2023-05-10T08:34:46;15.03;;;10.60;;
4529;SDS011;2277;51.626;7.516;2023-05-10T08:37:11;16.67;;;10.63;;
4529;SDS011;2277;51.626;7.516;2023-05-10T08:39:38;21.97;;;14.50;;
4529;SDS011;2277;51.626;7.516;2023-05-10T08:42:04;22.70;;;13.43;;
4529;SDS011;2277;51.626;7.516;2023-05-10T08:44:34;19.20;;;11.80;;
4529;SDS011;2277;51.626;7.516;2023-05-10T08:47:05;22.37;;;14.00;;
4529;SDS011;2277;51.626;7.516;2023-05-10T08:49:35;20.50;;;11.77;;
4529;SDS011;2277;51.626;7.516;2023-05-10T08:52:03;18.27;;;11.93;;
4529;SDS011;2277;51.626;7.516;2023-05-10T08:54:31;17.73;;;12.60;;
4529;SDS011;2277;51.626;7.516;2023-05-10T08:56:57;25.97;;;12.27;;
4529;SDS011;2277;51.626;7.516;2023-05-10T08:59:23;22.00;;;12.00;;
4529;SDS011;2277;51.626;7.516;2023-05-10T09:01:48;25.77;;;15.40;;
4529;SDS011;2277;51.626;7.516;2023-05-10T09:04:15;25.80;;;13.80;;
4529;SDS011;2277;51.626;7.516;2023-05-10T09:06:41;16.00;;;11.07;;
4529;SDS011;2277;51.626;7.516;2023-05-10T09:09:06;24.30;;;14.30;;
4529;SDS011;2277;51.626;7.516;2023-05-10T09:11:32;21.20;;;14.13;;
4529;SDS011;2277;51.626;7.516;2023-05-10T09:13:58;19.70;;;11.60;;
4529;SDS011;2277;51.626;7.516;2023-05-10T09:16:24;24.43;;;13.17;;
4529;SDS011;2277;51.626;7.516;2023-05-10T09:18:50;20.87;;;13.20;;
4529;SDS011;2277;51.626;7.516;2023-05-10T09:21:15;20.70;;;12.27;;
4529;SDS011;2277;51.626;7.516;2023-05-10T09:23:44;19.90;;;12.20;;
4529;SDS011;2277;51.626;7.516;2023-05-10T09:26:11;28.67;;;11.97;;
4529;SDS011;2277;51.626;7.516;2023-05-10T09:28:53;15.10;;;11.00;;
4529;SDS011;2277;51.626;7.516;2023-05-10T09:31:21;26.37;;;12.87;;
4529;SDS011;2277;51.626;7.516;2023-05-10T09:33:47;26.30;;;13.30;;
4529;SDS011;2277;51.626;7.516;2023-05-10T09:36:13;20.70;;;13.83;;
4529;SDS011;2277;51.626;7.516;2023-05-10T09:38:49;19.77;;;11.63;;
4529;SDS011;2277;51.626;7.516;2023-05-10T09:41:22;16.67;;;11.83;;
4529;SDS011;2277;51.626;7.516;2023-05-10T09:43:48;18.87;;;12.60;;
4529;SDS011;2277;51.626;7.516;2023-05-10T09:46:15;14.07;;;11.50;;
4529;SDS011;2277;51.626;7.516;2023-05-10T09:48:45;17.67;;;12.40;;
4529;SDS011;2277;51.626;7.516;2023-05-10T09:51:21;24.03;;;14.47;;
4529;SDS011;2277;51.626;7.516;2023-05-10T09:53:48;20.83;;;11.30;;
4529;SDS011;2277;51.626;7.516;2023-05-10T09:56:33;10.60;;;9.47;;
4529;SDS011;2277;51.626;7.516;2023-05-10T09:59:03;18.53;;;8.33;;
4529;SDS011;2277;51.626;7.516;2023-05-10T10:01:30;12.10;;;8.13;;
4529;SDS011;2277;51.626;7.516;2023-05-10T10:03:56;14.30;;;8.60;;
4529;SDS011;2277;51.626;7.516;2023-05-10T10:06:24;16.43;;;8.73;;
4529;SDS011;2277;51.626;7.516;2023-05-10T10:08:51;12.70;;;7.77;;
4529;SDS011;2277;51.626;7.516;2023-05-10T10:11:17;10.97;;;7.73;;
4529;SDS011;2277;51.626;7.516;2023-05-10T10:13:43;16.50;;;9.20;;
4529;SDS011;2277;51.626;7.516;2023-05-10T10:16:09;9.90;;;6.30;;
4529;SDS011;2277;51.626;7.516;2023-05-10T10:18:35;8.40;;;6.10;;
4529;SDS011;2277;51.626;7.516;2023-05-10T10:21:04;9.00;;;6.10;;
4529;SDS011;2277;51.626;7.516;2023-05-10T10:23:31;13.40;;;7.77;;
4529;SDS011;2277;51.626;7.516;2023-05-10T10:25:57;15.53;;;7.00;;
4529;SDS011;2277;51.626;7.516;2023-05-10T10:28:26;15.33;;;7.17;;
4529;SDS011;2277;51.626;7.516;2023-05-10T10:30:57;19.03;;;7.27;;
4529;SDS011;2277;51.626;7.516;2023-05-10T10:33:56;14.03;;;6.70;;
4529;SDS011;2277;51.626;7.516;2023-05-10T10:36:42;8.73;;;4.17;;
4529;SDS011;2277;51.626;7.516;2023-05-10T10:39:10;14.13;;;4.90;;
4529;SDS011;2277;51.626;7.516;2023-05-10T10:41:40;14.57;;;5.53;;
4529;SDS011;2277;51.626;7.516;2023-05-10T10:47:35;8.10;;;5.27;;
4529;SDS011;2277;51.626;7.516;2023-05-10T10:49:52;11.90;;;5.97;;
4529;SDS011;2277;51.626;7.516;2023-05-10T10:55:01;11.00;;;7.30;;
4529;SDS011;2277;51.626;7.516;2023-05-10T10:57:31;8.57;;;4.63;;
4529;SDS011;2277;51.626;7.516;2023-05-10T11:02:48;6.00;;;5.00;;
4529;SDS011;2277;51.626;7.516;2023-05-10T11:07:55;13.90;;;8.40;;
4529;SDS011;2277;51.626;7.516;2023-05-10T11:10:23;13.20;;;7.80;;
4529;SDS011;2277;51.626;7.516;2023-05-10T11:13:02;16.70;;;8.97;;
4529;SDS011;2277;51.626;7.516;2023-05-10T11:15:33;13.60;;;9.57;;
4529;SDS011;2277;51.626;7.516;2023-05-10T11:18:20;11.73;;;10.30;;
4529;SDS011;2277;51.626;7.516;2023-05-10T11:20:57;15.80;;;8.80;;
4529;SDS011;2277;51.626;7.516;2023-05-10T11:23:32;15.07;;;8.17;;
4529;SDS011;2277;51.626;7.516;2023-05-10T11:26:21;15.83;;;11.40;;
4529;SDS011;2277;51.626;7.516;2023-05-10T11:28:50;15.73;;;10.90;;
4529;SDS011;2277;51.626;7.516;2023-05-10T11:31:16;21.50;;;10.00;;
4529;SDS011;2277;51.626;7.516;2023-05-10T11:33:44;14.87;;;10.60;;
4529;SDS011;2277;51.626;7.516;2023-05-10T11:36:19;17.53;;;11.80;;
4529;SDS011;2277;51.626;7.516;2023-05-10T11:38:47;22.07;;;9.50;;
4529;SDS011;2277;51.626;7.516;2023-05-10T11:41:16;23.30;;;10.80;;
4529;SDS011;2277;51.626;7.516;2023-05-10T11:43:43;23.17;;;10.33;;
4529;SDS011;2277;51.626;7.516;2023-05-10T11:46:11;16.87;;;10.00;;
4529;SDS011;2277;51.626;7.516;2023-05-10T11:48:39;16.00;;;9.73;;
4529;SDS011;2277;51.626;7.516;2023-05-10T11:51:05;12.10;;;8.67;;
4529;SDS011;2277;51.626;7.516;2023-05-10T11:53:32;13.30;;;9.10;;
4529;SDS011;2277;51.626;7.516;2023-05-10T11:56:05;13.00;;;7.90;;
4529;SDS011;2277;51.626;7.516;2023-05-10T11:58:35;17.80;;;9.73;;
4529;SDS011;2277;51.626;7.516;2023-05-10T12:01:05;11.40;;;7.23;;
4529;SDS011;2277;51.626;7.516;2023-05-10T12:03:32;14.80;;;9.20;;
4529;SDS011;2277;51.626;7.516;2023-05-10T12:05:59;15.90;;;10.27;;
4529;SDS011;2277;51.626;7.516;2023-05-10T12:08:27;18.10;;;9.97;;
4529;SDS011;2277;51.626;7.516;2023-05-10T12:10:54;22.77;;;12.10;;
4529;SDS011;2277;51.626;7.516;2023-05-10T12:13:30;33.00;;;16.53;;
4529;SDS011;2277;51.626;7.516;2023-05-10T12:15:59;17.27;;;11.80;;
4529;SDS011;2277;51.626;7.516;2023-05-10T12:18:38;22.73;;;15.27;;
4529;SDS011;2277;51.626;7.516;2023-05-10T12:21:05;16.87;;;10.80;;
4529;SDS011;2277;51.626;7.516;2023-05-10T12:23:30;16.90;;;11.93;;
4529;SDS011;2277;51.626;7.516;2023-05-10T12:26:01;18.23;;;12.83;;
4529;SDS011;2277;51.626;7.516;2023-05-10T12:28:29;18.23;;;10.87;;
4529;SDS011;2277;51.626;7.516;2023-05-10T12:30:57;17.77;;;10.40;;
4529;SDS011;2277;51.626;7.516;2023-05-10T12:33:23;14.90;;;9.93;;
4529;SDS011;2277;51.626;7.516;2023-05-10T12:35:50;14.07;;;8.77;;
4529;SDS011;2277;51.626;7.516;2023-05-10T12:38:36;9.20;;;6.03;;
4529;SDS011;2277;51.626;7.516;2023-05-10T12:41:06;12.80;;;7.23;;
4529;SDS011;2277;51.626;7.516;2023-05-10T12:43:34;17.93;;;8.43;;
4529;SDS011;2277;51.626;7.516;2023-05-10T12:46:08;10.27;;;6.43;;
4529;SDS011;2277;51.626;7.516;2023-05-10T12:48:39;13.73;;;8.87;;
4529;SDS011;2277;51.626;7.516;2023-05-10T12:51:06;13.63;;;7.50;;
4529;SDS011;2277;51.626;7.516;2023-05-10T12:53:36;10.97;;;8.10;;
4529;SDS011;2277;51.626;7.516;2023-05-10T12:56:02;7.40;;;5.43;;
4529;SDS011;2277;51.626;7.516;2023-05-10T12:58:28;12.67;;;6.40;;
4529;SDS011;2277;51.626;7.516;2023-05-10T13:00:53;9.83;;;6.00;;
4529;SDS011;2277;51.626;7.516;2023-05-10T13:03:21;12.40;;;6.70;;
4529;SDS011;2277;51.626;7.516;2023-05-10T13:05:47;7.93;;;5.03;;
4529;SDS011;2277;51.626;7.516;2023-05-10T13:08:13;7.63;;;4.83;;
4529;SDS011;2277;51.626;7.516;2023-05-10T13:10:38;6.90;;;5.67;;
4529;SDS011;2277;51.626;7.516;2023-05-10T13:13:04;11.23;;;7.67;;
4529;SDS011;2277;51.626;7.516;2023-05-10T13:15:30;7.43;;;6.53;;
4529;SDS011;2277;51.626;7.516;2023-05-10T13:17:56;5.97;;;5.07;;
4529;SDS011;2277;51.626;7.516;2023-05-10T13:20:21;7.00;;;4.60;;
4529;SDS011;2277;51.626;7.516;2023-05-10T13:22:47;9.97;;;5.77;;
4529;SDS011;2277;51.626;7.516;2023-05-10T13:25:12;5.67;;;4.80;;
4529;SDS011;2277;51.626;7.516;2023-05-10T13:27:39;7.13;;;5.43;;
4529;SDS011;2277;51.626;7.516;2023-05-10T13:30:05;5.70;;;5.20;;
4529;SDS011;2277;51.626;7.516;2023-05-10T13:32:31;7.57;;;5.20;;
4529;SDS011;2277;51.626;7.516;2023-05-10T13:34:58;10.90;;;6.00;;
4529;SDS011;2277;51.626;7.516;2023-05-10T13:37:23;7.23;;;3.93;;
4529;SDS011;2277;51.626;7.516;2023-05-10T13:39:49;9.53;;;4.27;;
4529;SDS011;2277;51.626;7.516;2023-05-10T13:42:14;7.77;;;5.27;;
4529;SDS011;2277;51.626;7.516;2023-05-10T13:44:40;6.67;;;4.43;;
4529;SDS011;2277;51.626;7.516;2023-05-10T13:47:06;5.97;;;4.00;;
4529;SDS011;2277;51.626;7.516;2023-05-10T13:49:32;7.50;;;5.23;;
4529;SDS011;2277;51.626;7.516;2023-05-10T13:51:58;8.80;;;7.67;;
4529;SDS011;2277;51.626;7.516;2023-05-10T13:54:30;12.53;;;8.20;;
4529;SDS011;2277;51.626;7.516;2023-05-10T13:56:56;9.60;;;7.50;;
4529;SDS011;2277;51.626;7.516;2023-05-10T13:59:22;11.17;;;8.37;;
4529;SDS011;2277;51.626;7.516;2023-05-10T14:01:47;12.80;;;10.60;;
4529;SDS011;2277;51.626;7.516;2023-05-10T14:04:13;13.20;;;9.67;;
4529;SDS011;2277;51.626;7.516;2023-05-10T14:06:39;15.27;;;8.20;;
4529;SDS011;2277;51.626;7.516;2023-05-10T14:09:04;9.63;;;7.13;;
4529;SDS011;2277;51.626;7.516;2023-05-10T14:11:30;12.73;;;7.53;;
4529;SDS011;2277;51.626;7.516;2023-05-10T14:13:56;9.77;;;6.93;;
4529;SDS011;2277;51.626;7.516;2023-05-10T14:16:21;10.90;;;6.43;;
4529;SDS011;2277;51.626;7.516;2023-05-10T14:18:47;13.70;;;10.83;;
4529;SDS011;2277;51.626;7.516;2023-05-10T14:21:12;8.73;;;7.83;;
4529;SDS011;2277;51.626;7.516;2023-05-10T14:23:38;16.63;;;9.17;;
4529;SDS011;2277;51.626;7.516;2023-05-10T14:26:04;9.57;;;6.37;;
4529;SDS011;2277;51.626;7.516;2023-05-10T14:28:30;9.73;;;6.83;;
4529;SDS011;2277;51.626;7.516;2023-05-10T14:30:55;12.17;;;7.03;;
4529;SDS011;2277;51.626;7.516;2023-05-10T14:33:21;11.90;;;6.27;;
4529;SDS011;2277;51.626;7.516;2023-05-10T14:35:47;9.90;;;7.80;;
4529;SDS011;2277;51.626;7.516;2023-05-10T14:38:13;12.10;;;6.43;;
4529;SDS011;2277;51.626;7.516;2023-05-10T14:40:39;10.27;;;7.80;;
4529;SDS011;2277;51.626;7.516;2023-05-10T14:43:05;8.60;;;7.70;;
4529;SDS011;2277;51.626;7.516;2023-05-10T14:45:30;11.07;;;6.70;;
4529;SDS011;2277;51.626;7.516;2023-05-10T14:47:56;9.30;;;5.60;;
4529;SDS011;2277;51.626;7.516;2023-05-10T14:50:22;9.23;;;7.83;;
4529;SDS011;2277;51.626;7.516;2023-05-10T14:52:48;4.10;;;3.53;;
4529;SDS011;2277;51.626;7.516;2023-05-10T14:55:14;5.27;;;4.10;;
4529;SDS011;2277;51.626;7.516;2023-05-10T14:57:40;5.57;;;4.37;;
4529;SDS011;2277;51.626;7.516;2023-05-10T15:00:06;7.17;;;4.30;;
4529;SDS011;2277;51.626;7.516;2023-05-10T15:02:32;4.43;;;4.03;;
4529;SDS011;2277;51.626;7.516;2023-05-10T15:04:58;4.43;;;4.03;;
4529;SDS011;2277;51.626;7.516;2023-05-10T15:07:23;4.93;;;4.23;;
4529;SDS011;2277;51.626;7.516;2023-05-10T15:09:52;5.97;;;4.63;;
4529;SDS011;2277;51.626;7.516;2023-05-10T15:12:19;4.20;;;3.80;;
4529;SDS011;2277;51.626;7.516;2023-05-10T15:14:44;8.57;;;4.70;;
4529;SDS011;2277;51.626;7.516;2023-05-10T15:17:10;4.90;;;4.27;;
4529;SDS011;2277;51.626;7.516;2023-05-10T15:19:36;7.13;;;4.87;;
4529;SDS011;2277;51.626;7.516;2023-05-10T15:22:02;8.60;;;5.93;;
4529;SDS011;2277;51.626;7.516;2023-05-10T15:24:28;7.10;;;4.67;;
4529;SDS011;2277;51.626;7.516;2023-05-10T15:26:54;5.77;;;4.33;;
4529;SDS011;2277;51.626;7.516;2023-05-10T15:29:20;4.93;;;4.43;;
4529;SDS011;2277;51.626;7.516;2023-05-10T15:31:49;3.90;;;3.43;;
4529;SDS011;2277;51.626;7.516;2023-05-10T15:34:15;4.80;;;3.40;;